CheckWX is a tool to help pilots better visualize weather data.  It is not intended as a substitute for an official pre-flight weather briefing.

17:58:19 UTC

CWGZ METAR
Grise Fiord Airport
Canada
Current

58 mins ago

CWGZ 171700Z 22015KT 3SM -SN DRSN OVC011 M05/M06 A2997 RMK SC8 SLP157
Observed
Oct-17 @ 17:00 UTC
Wind
  • 220° at 15 KTS
Visibility
3 SM
Flight Rules
MVFR
Conditions
Light Snow, Low drifting Snow
Cloud Levels
  • Overcast at 1,100' AGL
Temperature
-5°C / 23°F
Dewpoint
-6°C / 21°F
Humidity
93%
Altimeter
29.97" Hg
Pressure
1014.92 hPa
Previous

2 hours ago

CWGZ 171600Z 22016KT 3SM -SN DRSN BKN013 M05/M07 A2997 RMK SC7 SUN DMLY VSBL SLP157
Observed
Oct-17 @ 16:00 UTC
Wind
  • 220° at 16 KTS
Visibility
3 SM
Flight Rules
MVFR
Conditions
Light Snow, Low drifting Snow
Cloud Levels
  • Broken at 1,300' AGL
Temperature
-5°C / 23°F
Dewpoint
-7°C / 19°F
Humidity
86%
Altimeter
29.97" Hg
Pressure
1014.92 hPa
Previous

3 hours ago

CWGZ 171500Z 22017KT 6SM -SN DRSN OVC013 M05/M07 A2997 RMK SC8 SLP157
Observed
Oct-17 @ 15:00 UTC
Wind
  • 220° at 17 KTS
Visibility
6 SM
Flight Rules
MVFR
Conditions
Light Snow, Low drifting Snow
Cloud Levels
  • Overcast at 1,300' AGL
Temperature
-5°C / 23°F
Dewpoint
-7°C / 19°F
Humidity
86%
Altimeter
29.97" Hg
Pressure
1014.92 hPa